Time;durP1;ratioP1;P1;durP2;ratioP2;P2;SDS_P1;SDS_P2;PMS_P1;PMS_P2;Temp;Humidity;BMP_temperature;BMP_pressure;BME280_temperature;BME280_humidity;BME280_pressure;Samples;Min_cycle;Max_cycle;Signal;HPM_P1;HPM_P2
2023/03/15 00:02:40;;;;;;;;;;;;;;;-144.98;100.00;62585.19;4954066;29;20371;-70
2023/03/15 00:05:46;;;;;;;;;;;;;;;-144.98;100.00;62585.19;4942399;29;20302;-70
2023/03/15 00:08:50;;;;;;;;;;;;;;;-144.98;100.00;62585.19;4955894;28;19989;-70
2023/03/15 00:12:22;;;;;;;;;;;;;;;-144.98;100.00;62585.19;4957893;29;20409;-70
2023/03/15 00:15:29;;;;;;;;;;;;;;;-144.98;100.00;62585.19;4958043;29;19925;-70
2023/03/15 00:18:41;;;;;;;;;;;;;;;-144.98;100.00;62585.19;4944654;29;19925;-70
2023/03/15 00:21:45;;;;;;;;;;;;;;;-144.98;100.00;62585.19;4957603;29;19973;-70
2023/03/15 00:25:04;;;;;;;;;;;;;;;-144.98;100.00;62585.19;4957934;29;19930;-70
2023/03/15 00:28:07;;;;;;;;;;;;;;;-144.98;100.00;62585.19;4956075;29;19930;-70
2023/03/15 00:31:18;;;;;;;;;;;;;;;-144.98;100.00;62585.19;4944348;29;19934;-70
2023/03/15 00:34:25;;;;;;;;;;;;;;;-144.98;100.00;62585.19;4945614;29;19929;-70
2023/03/15 00:37:32;;;;;;;;;;;;;;;-144.98;100.00;62585.19;4957098;29;19925;-70
2023/03/15 00:40:39;;;;;;;;;;;;;;;-144.98;100.00;62585.19;4957468;29;19977;-70
2023/03/15 00:43:43;;;;;;;;;;;;;;;-144.98;100.00;62585.19;4957602;29;20016;-70
2023/03/15 00:46:47;;;;;;;;;;;;;;;-144.98;100.00;62585.19;4957212;29;20287;-70
2023/03/15 00:49:51;;;;;;;;;;;;;;;-144.98;100.00;62585.19;4956908;29;19946;-70
2023/03/15 00:56:20;;;;;;;;;;;;;;;-144.98;100.00;62585.19;4945360;29;19988;-71
2023/03/15 00:59:24;;;;;;;;;;;;;;;-144.98;100.00;62585.19;4957325;29;19925;-71
2023/03/15 01:02:37;;;;;;;;;;;;;;;-144.98;100.00;62585.19;4944622;29;19946;-71
2023/03/15 01:05:42;;;;;;;;;;;;;;;-144.98;100.00;62585.19;4956789;29;20390;-70
2023/03/15 01:08:48;;;;;;;;;;;;;;;-144.98;100.00;62585.19;4957188;29;19934;-70
2023/03/15 01:11:52;;;;;;;;;;;;;;;-144.98;100.00;62585.19;4945109;29;19946;-71
2023/03/15 01:14:56;;;;;;;;;;;;;;;-144.98;100.00;62585.19;4956842;29;20054;-71
2023/03/15 01:18:03;;;;;;;;;;;;;;;-144.98;100.00;62585.19;4956744;29;19954;-70
2023/03/15 01:21:09;;;;;;;;;;;;;;;-144.98;100.00;62585.19;4944881;29;19924;-71
2023/03/15 01:24:14;;;;;;;;;;;;;;;-144.98;100.00;62585.19;4956751;28;20024;-70
2023/03/15 01:27:18;;;;;;;;;;;;;;;-144.98;100.00;62585.19;4944897;29;19969;-70
2023/03/15 01:30:50;;;;;;;;;;;;;;;-144.98;100.00;62585.19;4947505;29;19924;-70
2023/03/15 01:33:54;;;;;;;;;;;;;;;-144.98;100.00;62585.19;4944295;29;19973;-70
2023/03/15 01:37:01;;;;;;;;;;;;;;;-144.98;100.00;62585.19;4944274;29;19929;-70
2023/03/15 01:44:09;;;;;;;;;;;;;;;-144.98;100.00;62585.19;4955476;29;19926;-70
2023/03/15 01:47:37;;;;;;;;;;;;;;;-144.98;100.00;62585.19;4943871;29;19929;-70
2023/03/15 01:50:46;;;;;;;;;;;;;;;-144.98;100.00;62585.19;4944091;29;19930;-69
2023/03/15 01:54:07;;;;;;;;;;;;;;;-144.98;100.00;62585.19;4944133;29;19941;-69
2023/03/15 01:57:35;;;;;;;;;;;;;;;-144.98;100.00;62585.19;4944056;29;20352;-70
2023/03/15 02:00:42;;;;;;;;;;;;;;;-144.98;100.00;62585.19;4955068;29;20009;-70
2023/03/15 02:03:57;;;;;;;;;;;;;;;-144.98;100.00;62585.19;4943767;29;19925;-70
2023/03/15 02:07:07;;;;;;;;;;;;;;;-144.98;100.00;62585.19;4944316;29;20298;-70
2023/03/15 02:10:39;;;;;;;;;;;;;;;-144.98;100.00;62585.19;4938773;29;19926;-69
2023/03/15 02:13:43;;;;;;;;;;;;;;;-144.98;100.00;62585.19;4944155;29;19925;-70
2023/03/15 02:16:52;;;;;;;;;;;;;;;-144.98;100.00;62585.19;4943984;29;19925;-70
2023/03/15 02:20:03;;;;;;;;;;;;;;;-144.98;100.00;62585.19;4943820;29;19924;-70
2023/03/15 02:23:12;;;;;;;;;;;;;;;-144.98;100.00;62585.19;4943272;29;19965;-70
2023/03/15 02:26:20;;;;;;;;;;;;;;;-144.98;100.00;62585.19;4941748;29;19930;-70
2023/03/15 02:29:24;;;;;;;;;;;;;;;-144.98;100.00;62585.19;4954776;29;20012;-70
2023/03/15 02:32:30;;;;;;;;;;;;;;;-144.98;100.00;62585.19;4954664;29;19973;-70
2023/03/15 02:35:38;;;;;;;;;;;;;;;-144.98;100.00;62585.19;4955317;29;19929;-70
2023/03/15 02:38:41;;;;;;;;;;;;;;;-144.98;100.00;62585.19;4954869;29;19925;-70
2023/03/15 02:41:48;;;;;;;;;;;;;;;-144.98;100.00;62585.19;4955518;29;20302;-70
2023/03/15 02:44:56;;;;;;;;;;;;;;;-144.98;100.00;62585.19;4955027;29;19985;-70
2023/03/15 02:48:01;;;;;;;;;;;;;;;-144.98;100.00;62585.19;4953521;29;20526;-70
2023/03/15 02:51:05;;;;;;;;;;;;;;;-144.98;100.00;62585.19;4953544;29;20310;-70
2023/03/15 02:54:11;;;;;;;;;;;;;;;-144.98;100.00;62585.19;4953246;29;19965;-70
2023/03/15 02:57:17;;;;;;;;;;;;;;;-144.98;100.00;62585.19;4954904;29;20279;-70
2023/03/15 03:00:23;;;;;;;;;;;;;;;-144.98;100.00;62585.19;4942719;29;19973;-70
2023/03/15 03:03:27;;;;;;;;;;;;;;;-144.98;100.00;62585.19;4954841;29;19929;-70
2023/03/15 03:06:31;;;;;;;;;;;;;;;-144.98;100.00;62585.19;4954767;29;19929;-70
2023/03/15 03:09:42;;;;;;;;;;;;;;;-144.98;100.00;62585.19;4943352;29;19925;-70
2023/03/15 03:12:52;;;;;;;;;;;;;;;-144.98;100.00;62585.19;4943158;29;19992;-70
2023/03/15 03:15:59;;;;;;;;;;;;;;;-144.98;100.00;62585.19;4943201;29;19945;-70
2023/03/15 03:19:05;;;;;;;;;;;;;;;-144.98;100.00;62585.19;4942234;29;19926;-70
2023/03/15 03:22:12;;;;;;;;;;;;;;;-144.98;100.00;62585.19;4954425;28;19989;-70
2023/03/15 03:26:11;;;;;;;;;;;;;;;-144.98;100.00;62585.19;4938440;29;19976;-69
2023/03/15 03:29:17;;;;;;;;;;;;;;;-144.98;100.00;62585.19;4948380;29;19977;-69
2023/03/15 03:32:23;;;;;;;;;;;;;;;-144.98;100.00;62585.19;4942655;29;19929;-69
2023/03/15 03:35:33;;;;;;;;;;;;;;;-144.98;100.00;62585.19;4954449;29;19973;-70
2023/03/15 03:38:42;;;;;;;;;;;;;;;-144.98;100.00;62585.19;4942518;29;19930;-70
2023/03/15 03:41:45;;;;;;;;;;;;;;;-144.98;100.00;62585.19;4942610;28;19926;-69
2023/03/15 03:44:49;;;;;;;;;;;;;;;-144.98;100.00;62585.19;4957290;29;19965;-69
2023/03/15 03:47:53;;;;;;;;;;;;;;;-144.98;100.00;62585.19;4945305;29;20386;-69
2023/03/15 03:50:57;;;;;;;;;;;;;;;-144.98;100.00;62585.19;4945751;29;19929;-69
2023/03/15 03:54:00;;;;;;;;;;;;;;;-144.98;100.00;62585.19;4958408;29;20410;-69
2023/03/15 03:57:05;;;;;;;;;;;;;;;-144.98;100.00;62585.19;4946395;29;20430;-70
2023/03/15 04:00:13;;;;;;;;;;;;;;;-144.98;100.00;62585.19;4946501;29;19926;-70
2023/03/15 04:03:18;;;;;;;;;;;;;;;-144.98;100.00;62585.19;4957904;29;20389;-70
2023/03/15 04:06:25;;;;;;;;;;;;;;;-144.98;100.00;62585.19;4945712;29;19965;-69
2023/03/15 04:09:29;;;;;;;;;;;;;;;-144.98;100.00;62585.19;4946076;29;19973;-70
2023/03/15 04:12:32;;;;;;;;;;;;;;;-144.98;100.00;62585.19;4945988;29;19941;-70
2023/03/15 04:15:35;;;;;;;;;;;;;;;-144.98;100.00;62585.19;4934829;29;19925;-70
2023/03/15 04:18:39;;;;;;;;;;;;;;;-144.98;100.00;62585.19;4957618;29;19992;-70
2023/03/15 04:21:46;;;;;;;;;;;;;;;-144.98;100.00;62585.19;4937022;29;20271;-70
2023/03/15 04:25:08;;;;;;;;;;;;;;;-144.98;100.00;62585.19;4954193;29;20065;-69
2023/03/15 04:28:36;;;;;;;;;;;;;;;-144.98;100.00;62585.19;4949152;29;19929;-71
2023/03/15 04:32:00;;;;;;;;;;;;;;;-144.98;100.00;62585.19;4938056;29;19925;-71
2023/03/15 04:35:31;;;;;;;;;;;;;;;-144.98;100.00;62585.19;4933378;29;19966;-71
2023/03/15 04:38:40;;;;;;;;;;;;;;;-144.98;100.00;62585.19;4926703;29;19947;-71
2023/03/15 04:42:09;;;;;;;;;;;;;;;-144.98;100.00;62585.19;4938228;29;20295;-72
2023/03/15 04:45:41;;;;;;;;;;;;;;;-144.98;100.00;62585.19;4937988;29;19945;-71
2023/03/15 04:49:04;;;;;;;;;;;;;;;-144.98;100.00;62585.19;4938022;29;19926;-71
2023/03/15 04:52:30;;;;;;;;;;;;;;;-144.98;100.00;62585.19;4938006;29;19929;-70
2023/03/15 04:55:39;;;;;;;;;;;;;;;-144.98;100.00;62585.19;4937571;29;19929;-71
2023/03/15 04:58:56;;;;;;;;;;;;;;;-144.98;100.00;62585.19;4925470;29;19925;-71
2023/03/15 05:02:38;;;;;;;;;;;;;;;-144.98;100.00;62585.19;4937770;29;20053;-70
2023/03/15 05:05:50;;;;;;;;;;;;;;;-144.98;100.00;62585.19;4925756;29;19977;-71
2023/03/15 05:09:17;;;;;;;;;;;;;;;-144.98;100.00;62585.19;4925568;29;19926;-70
2023/03/15 05:12:41;;;;;;;;;;;;;;;-144.98;100.00;62585.19;4903037;29;19961;-72
2023/03/15 05:15:56;;;;;;;;;;;;;;;-144.98;100.00;62585.19;4906490;29;19982;-70
2023/03/15 05:19:18;;;;;;;;;;;;;;;-144.98;100.00;62585.19;4906808;29;20328;-71
2023/03/15 05:22:42;;;;;;;;;;;;;;;-144.98;100.00;62585.19;4906854;29;20001;-70
2023/03/15 05:26:08;;;;;;;;;;;;;;;-144.98;100.00;62585.19;4906070;29;19970;-70
2023/03/15 05:29:38;;;;;;;;;;;;;;;-144.98;100.00;62585.19;4918202;29;19979;-70
2023/03/15 05:32:53;;;;;;;;;;;;;;;-144.98;100.00;62585.19;4917873;29;19926;-70
2023/03/15 05:36:08;;;;;;;;;;;;;;;-144.98;100.00;62585.19;4906611;29;20030;-71
2023/03/15 05:39:21;;;;;;;;;;;;;;;-144.98;100.00;62585.19;4906708;29;20435;-71
2023/03/15 05:42:43;;;;;;;;;;;;;;;-144.98;100.00;62585.19;4918020;29;19969;-70
2023/03/15 05:46:10;;;;;;;;;;;;;;;-144.98;100.00;62585.19;4917082;29;19986;-70
2023/03/15 05:49:34;;;;;;;;;;;;;;;-144.98;100.00;62585.19;4917711;29;19934;-70
2023/03/15 05:53:04;;;;;;;;;;;;;;;-144.98;100.00;62585.19;4917955;29;19981;-71
2023/03/15 05:56:14;;;;;;;;;;;;;;;-144.98;100.00;62585.19;4906086;29;19926;-71
2023/03/15 05:59:52;;;;;;;;;;;;;;;-144.98;100.00;62585.19;4897413;29;20022;-71
2023/03/15 06:03:23;;;;;;;;;;;;;;;-144.98;100.00;62585.19;4917337;29;19926;-70
2023/03/15 06:06:33;;;;;;;;;;;;;;;-144.98;100.00;62585.19;4914614;29;19934;-70
2023/03/15 06:09:36;;;;;;;;;;;;;;;-144.98;100.00;62585.19;4917731;29;20432;-70
2023/03/15 06:12:40;;;;;;;;;;;;;;;-144.98;100.00;62585.19;4917410;29;20033;-70
2023/03/15 06:15:46;;;;;;;;;;;;;;;-144.98;100.00;62585.19;4905993;29;19926;-70
2023/03/15 06:18:49;;;;;;;;;;;;;;;-144.98;100.00;62585.19;4905424;29;20013;-70
2023/03/15 06:21:53;;;;;;;;;;;;;;;-144.98;100.00;62585.19;4905441;29;19988;-70
2023/03/15 06:25:06;;;;;;;;;;;;;;;-144.98;100.00;62585.19;4905386;29;19930;-70
2023/03/15 06:28:09;;;;;;;;;;;;;;;-144.98;100.00;62585.19;4917205;29;19926;-70
2023/03/15 06:31:14;;;;;;;;;;;;;;;-144.98;100.00;62585.19;4905555;29;19927;-70
2023/03/15 06:34:26;;;;;;;;;;;;;;;-144.98;100.00;62585.19;4900376;29;19967;-70
2023/03/15 06:37:30;;;;;;;;;;;;;;;-144.98;100.00;62585.19;4905587;29;19926;-70
2023/03/15 06:40:33;;;;;;;;;;;;;;;-144.98;100.00;62585.19;4904703;29;19926;-70
2023/03/15 06:43:37;;;;;;;;;;;;;;;-144.98;100.00;62585.19;4905151;29;19952;-70
2023/03/15 06:46:40;;;;;;;;;;;;;;;-144.98;100.00;62585.19;4928675;29;19949;-70
2023/03/15 06:49:43;;;;;;;;;;;;;;;-144.98;100.00;62585.19;4954936;29;19977;-70
2023/03/15 06:52:47;;;;;;;;;;;;;;;-144.98;100.00;62585.19;4943148;29;20018;-70
2023/03/15 06:55:54;;;;;;;;;;;;;;;-144.98;100.00;62585.19;4943007;29;19926;-70
2023/03/15 06:58:57;;;;;;;;;;;;;;;-144.98;100.00;62585.19;4955071;29;20357;-70
2023/03/15 07:02:00;;;;;;;;;;;;;;;-144.98;100.00;62585.19;4954431;29;19973;-70
2023/03/15 07:05:03;;;;;;;;;;;;;;;-144.98;100.00;62585.19;4954418;29;19994;-70
2023/03/15 07:08:06;;;;;;;;;;;;;;;-144.98;100.00;62585.19;4954066;29;19925;-70
2023/03/15 07:11:09;;;;;;;;;;;;;;;-144.98;100.00;62585.19;4954542;29;20007;-70
2023/03/15 07:14:12;;;;;;;;;;;;;;;-144.98;100.00;62585.19;4954455;29;20731;-70
2023/03/15 07:17:16;;;;;;;;;;;;;;;-144.98;100.00;62585.19;4954483;28;20017;-71
2023/03/15 07:20:19;;;;;;;;;;;;;;;-144.98;100.00;62585.19;4954646;29;19964;-71
2023/03/15 07:23:22;;;;;;;;;;;;;;;-144.98;100.00;62585.19;4942443;29;20080;-70
2023/03/15 07:26:25;;;;;;;;;;;;;;;-144.98;100.00;62585.19;4949131;29;20364;-71
2023/03/15 07:29:28;;;;;;;;;;;;;;;-144.98;100.00;62585.19;4954240;29;19925;-71
2023/03/15 07:32:31;;;;;;;;;;;;;;;-144.98;100.00;62585.19;4954250;29;19941;-71
2023/03/15 07:35:35;;;;;;;;;;;;;;;-144.98;100.00;62585.19;4954367;29;19961;-71
2023/03/15 07:38:38;;;;;;;;;;;;;;;-144.98;100.00;62585.19;4954537;29;20398;-71
2023/03/15 07:41:42;;;;;;;;;;;;;;;-144.98;100.00;62585.19;4954447;29;20299;-71
2023/03/15 07:44:58;;;;;;;;;;;;;;;-144.98;100.00;62585.19;4942259;29;19926;-70
2023/03/15 07:48:01;;;;;;;;;;;;;;;-144.98;100.00;62585.19;4954332;29;20389;-70
2023/03/15 07:51:05;;;;;;;;;;;;;;;-144.98;100.00;62585.19;4954130;29;19970;-71
2023/03/15 07:54:08;;;;;;;;;;;;;;;-144.98;100.00;62585.19;4954387;29;19977;-70
2023/03/15 07:57:11;;;;;;;;;;;;;;;-144.98;100.00;62585.19;4954171;29;20021;-70
2023/03/15 08:00:15;;;;;;;;;;;;;;;-144.98;100.00;62585.19;4942700;29;19974;-70
2023/03/15 08:03:18;;;;;;;;;;;;;;;-144.98;100.00;62585.19;4954246;29;20294;-70
2023/03/15 08:06:21;;;;;;;;;;;;;;;-144.98;100.00;62585.19;4954126;29;19975;-70
2023/03/15 08:09:24;;;;;;;;;;;;;;;-144.98;100.00;62585.19;4954314;29;19974;-70
2023/03/15 08:12:29;;;;;;;;;;;;;;;-144.98;100.00;62585.19;4954414;29;19941;-70
2023/03/15 08:15:32;;;;;;;;;;;;;;;-144.98;100.00;62585.19;4954258;29;19926;-71
2023/03/15 08:18:35;;;;;;;;;;;;;;;-144.98;100.00;62585.19;4953997;29;19934;-70
2023/03/15 08:21:38;;;;;;;;;;;;;;;-144.98;100.00;62585.19;4954209;29;20062;-70
2023/03/15 08:24:42;;;;;;;;;;;;;;;-144.98;100.00;62585.19;4954383;29;19950;-70
2023/03/15 08:27:48;;;;;;;;;;;;;;;-144.98;100.00;62585.19;4954111;29;19970;-71
2023/03/15 08:30:52;;;;;;;;;;;;;;;-144.98;100.00;62585.19;4945705;29;20287;-71
2023/03/15 08:33:55;;;;;;;;;;;;;;;-144.98;100.00;62585.19;4945563;29;19961;-70
2023/03/15 08:36:58;;;;;;;;;;;;;;;-144.98;100.00;62585.19;4957441;29;20017;-71
2023/03/15 08:40:07;;;;;;;;;;;;;;;-144.98;100.00;62585.19;4957499;29;20299;-71
2023/03/15 08:43:21;;;;;;;;;;;;;;;-144.98;100.00;62585.19;4957299;29;19929;-71
2023/03/15 08:46:24;;;;;;;;;;;;;;;-144.98;100.00;62585.19;4957419;29;19929;-71
2023/03/15 08:49:27;;;;;;;;;;;;;;;-144.98;100.00;62585.19;4952349;29;19929;-71
2023/03/15 08:52:30;;;;;;;;;;;;;;;-144.98;100.00;62585.19;4956868;29;19930;-72
2023/03/15 08:55:39;;;;;;;;;;;;;;;-144.98;100.00;62585.19;4941478;29;19925;-72
2023/03/15 08:59:04;;;;;;;;;;;;;;;-144.98;100.00;62585.19;4947585;29;20467;-72
2023/03/15 09:02:08;;;;;;;;;;;;;;;-144.98;100.00;62585.19;4956887;29;19953;-71
2023/03/15 09:05:14;;;;;;;;;;;;;;;-144.98;100.00;62585.19;4955447;29;20004;-71
2023/03/15 09:08:20;;;;;;;;;;;;;;;-144.98;100.00;62585.19;4955916;29;19965;-72
2023/03/15 09:11:23;;;;;;;;;;;;;;;-144.98;100.00;62585.19;4956935;29;19946;-71
2023/03/15 09:14:27;;;;;;;;;;;;;;;-144.98;100.00;62585.19;4956801;29;20025;-71
2023/03/15 09:17:30;;;;;;;;;;;;;;;-144.98;100.00;62585.19;4956520;29;19965;-71
2023/03/15 09:20:33;;;;;;;;;;;;;;;-144.98;100.00;62585.19;4956814;29;19941;-71
2023/03/15 09:23:36;;;;;;;;;;;;;;;-144.98;100.00;62585.19;4956796;28;20385;-72
2023/03/15 09:26:39;;;;;;;;;;;;;;;-144.98;100.00;62585.19;4956244;29;20081;-71
2023/03/15 09:29:43;;;;;;;;;;;;;;;-144.98;100.00;62585.19;4956755;29;20444;-71
2023/03/15 09:32:46;;;;;;;;;;;;;;;-144.98;100.00;62585.19;4956071;29;20013;-71
2023/03/15 09:35:50;;;;;;;;;;;;;;;-144.98;100.00;62585.19;4956062;29;20306;-71
2023/03/15 09:38:53;;;;;;;;;;;;;;;-144.98;100.00;62585.19;4956567;29;20410;-71
2023/03/15 09:41:57;;;;;;;;;;;;;;;-144.98;100.00;62585.19;4956020;28;20061;-71
2023/03/15 09:45:07;;;;;;;;;;;;;;;-144.98;100.00;62585.19;4956164;29;19925;-72
2023/03/15 09:48:15;;;;;;;;;;;;;;;-144.98;100.00;62585.19;4956248;29;20051;-71
2023/03/15 09:51:34;;;;;;;;;;;;;;;-144.98;100.00;62585.19;4955805;29;20040;-71
2023/03/15 09:54:45;;;;;;;;;;;;;;;-144.98;100.00;62585.19;4956058;29;20442;-71
2023/03/15 09:57:51;;;;;;;;;;;;;;;-144.98;100.00;62585.19;4955851;29;19926;-71
2023/03/15 10:01:05;;;;;;;;;;;;;;;-144.98;100.00;62585.19;4955778;29;19962;-71
2023/03/15 10:04:17;;;;;;;;;;;;;;;-144.98;100.00;62585.19;4955969;29;20010;-71
2023/03/15 10:07:21;;;;;;;;;;;;;;;-144.98;100.00;62585.19;4956152;29;19930;-71
2023/03/15 10:10:30;;;;;;;;;;;;;;;-144.98;100.00;62585.19;4955794;29;19980;-71
2023/03/15 10:13:45;;;;;;;;;;;;;;;-144.98;100.00;62585.19;4955706;29;19968;-71
2023/03/15 10:16:50;;;;;;;;;;;;;;;-144.98;100.00;62585.19;4955653;29;20503;-71
2023/03/15 10:20:08;;;;;;;;;;;;;;;-144.98;100.00;62585.19;4955876;29;20414;-71
2023/03/15 10:23:30;;;;;;;;;;;;;;;-144.98;100.00;62585.19;4955578;28;19926;-69
2023/03/15 10:26:38;;;;;;;;;;;;;;;-144.98;100.00;62585.19;4955384;29;20401;-70
2023/03/15 10:29:41;;;;;;;;;;;;;;;-144.98;100.00;62585.19;4955362;29;19946;-69
2023/03/15 10:32:46;;;;;;;;;;;;;;;-144.98;100.00;62585.19;4955340;29;19941;-69
2023/03/15 10:35:49;;;;;;;;;;;;;;;-144.98;100.00;62585.19;4955474;29;19946;-71
2023/03/15 10:38:52;;;;;;;;;;;;;;;-144.98;100.00;62585.19;4955260;29;19926;-71
2023/03/15 10:41:56;;;;;;;;;;;;;;;-144.98;100.00;62585.19;4955306;29;20020;-71
2023/03/15 10:45:12;;;;;;;;;;;;;;;-144.98;100.00;62585.19;4955068;29;19929;-71
2023/03/15 10:48:15;;;;;;;;;;;;;;;-144.98;100.00;62585.19;4955235;29;19930;-71
2023/03/15 10:51:26;;;;;;;;;;;;;;;-144.98;100.00;62585.19;4954886;28;19976;-72
2023/03/15 10:54:33;;;;;;;;;;;;;;;-144.98;100.00;62585.19;4955080;29;20005;-70
2023/03/15 10:57:38;;;;;;;;;;;;;;;-144.98;100.00;62585.19;4955224;29;19925;-71
2023/03/15 11:00:48;;;;;;;;;;;;;;;-144.98;100.00;62585.19;4952126;29;19968;-71
2023/03/15 11:04:05;;;;;;;;;;;;;;;-144.98;100.00;62585.19;4954879;29;19998;-71
2023/03/15 11:07:09;;;;;;;;;;;;;;;-144.98;100.00;62585.19;4954672;29;19945;-71
2023/03/15 11:10:19;;;;;;;;;;;;;;;-144.98;100.00;62585.19;4954635;29;19965;-71
2023/03/15 11:13:27;;;;;;;;;;;;;;;-144.98;100.00;62585.19;4954898;29;19973;-71
2023/03/15 11:16:33;;;;;;;;;;;;;;;-144.98;100.00;62585.19;4954516;29;19926;-71
2023/03/15 11:19:41;;;;;;;;;;;;;;;-144.98;100.00;62585.19;4954748;29;19981;-71
2023/03/15 11:27:30;;;;;;;;;;;;;;;-144.98;100.00;62585.19;4870947;29;19929;-71
2023/03/15 11:30:56;;;;;;;;;;;;;;;-144.98;100.00;62585.19;4955056;29;19929;-71
2023/03/15 11:34:07;;;;;;;;;;;;;;;-144.98;100.00;62585.19;4954348;29;19929;-71
2023/03/15 11:37:22;;;;;;;;;;;;;;;-144.98;100.00;62585.19;4954440;29;19925;-71
2023/03/15 11:40:36;;;;;;;;;;;;;;;-144.98;100.00;62585.19;4954844;29;20402;-72
2023/03/15 11:43:41;;;;;;;;;;;;;;;-144.98;100.00;62585.19;4954277;29;19973;-71
2023/03/15 11:46:47;;;;;;;;;;;;;;;-144.98;100.00;62585.19;4954138;29;19931;-71
2023/03/15 11:49:52;;;;;;;;;;;;;;;-144.98;100.00;62585.19;4954452;29;19949;-69
2023/03/15 11:53:01;;;;;;;;;;;;;;;-144.98;100.00;62585.19;4953366;29;20017;-69
2023/03/15 11:56:24;;;;;;;;;;;;;;;-144.98;100.00;62585.19;4954749;29;20552;-71
2023/03/15 11:59:37;;;;;;;;;;;;;;;-144.98;100.00;62585.19;4954699;29;20478;-71
2023/03/15 12:03:08;;;;;;;;;;;;;;;-144.98;100.00;62585.19;4951789;29;20331;-71
2023/03/15 12:07:08;;;;;;;;;;;;;;;-144.98;100.00;62585.19;4955027;29;20017;-71
2023/03/15 12:10:59;;;;;;;;;;;;;;;-144.98;100.00;62585.19;4944238;29;19998;-71
2023/03/15 12:14:39;;;;;;;;;;;;;;;-144.98;100.00;62585.19;4934246;29;20008;-71
2023/03/15 12:18:13;;;;;;;;;;;;;;;-144.98;100.00;62585.19;4958452;29;19974;-71
2023/03/15 12:21:41;;;;;;;;;;;;;;;-144.98;100.00;62585.19;4958387;29;19968;-71
2023/03/15 12:24:55;;;;;;;;;;;;;;;-144.98;100.00;62585.19;4935096;29;19961;-71
2023/03/15 12:28:09;;;;;;;;;;;;;;;-144.98;100.00;62585.19;4958288;29;19976;-72
2023/03/15 12:31:13;;;;;;;;;;;;;;;-144.98;100.00;62585.19;4957942;29;20503;-72
2023/03/15 12:34:25;;;;;;;;;;;;;;;-144.98;100.00;62585.19;4957780;29;19957;-72
2023/03/15 12:37:42;;;;;;;;;;;;;;;-144.98;100.00;62585.19;4957391;29;19924;-72
2023/03/15 12:40:55;;;;;;;;;;;;;;;-144.98;100.00;62585.19;4957359;29;19985;-71
2023/03/15 12:44:17;;;;;;;;;;;;;;;-144.98;100.00;62585.19;4957019;29;19926;-72
2023/03/15 12:47:21;;;;;;;;;;;;;;;-144.98;100.00;62585.19;4957183;29;19929;-71
2023/03/15 12:54:17;;;;;;;;;;;;;;;-144.98;100.00;62585.19;4957092;29;19929;-72
2023/03/15 12:57:28;;;;;;;;;;;;;;;-144.98;100.00;62585.19;4957153;29;19924;-73
2023/03/15 13:00:35;;;;;;;;;;;;;;;-144.98;100.00;62585.19;4957117;29;20244;-73
2023/03/15 13:04:05;;;;;;;;;;;;;;;-144.98;100.00;62585.19;4957510;29;19961;-73
2023/03/15 13:07:23;;;;;;;;;;;;;;;-144.98;100.00;62585.19;4956299;29;20402;-74
2023/03/15 13:10:39;;;;;;;;;;;;;;;-144.98;100.00;62585.19;4956158;29;20298;-73
2023/03/15 13:13:43;;;;;;;;;;;;;;;-144.98;100.00;62585.19;4956901;29;19925;-77
2023/03/15 13:16:47;;;;;;;;;;;;;;;-144.98;100.00;62585.19;4956267;29;19972;-73
2023/03/15 13:19:55;;;;;;;;;;;;;;;-144.98;100.00;62585.19;4956386;29;19973;-72
2023/03/15 13:23:10;;;;;;;;;;;;;;;-144.98;100.00;62585.19;4956859;28;19993;-69
2023/03/15 13:26:23;;;;;;;;;;;;;;;-144.98;100.00;62585.19;4956466;29;19929;-70
2023/03/15 13:29:31;;;;;;;;;;;;;;;-144.98;100.00;62585.19;4956449;29;19946;-70
2023/03/15 13:32:34;;;;;;;;;;;;;;;-144.98;100.00;62585.19;4956684;29;19945;-72
2023/03/15 13:36:06;;;;;;;;;;;;;;;-144.98;100.00;62585.19;4956058;29;19930;-74
2023/03/15 13:39:17;;;;;;;;;;;;;;;-144.98;100.00;62585.19;4947308;29;20291;-72
2023/03/15 13:42:24;;;;;;;;;;;;;;;-144.98;100.00;62585.19;4956653;29;19965;-73
2023/03/15 13:45:28;;;;;;;;;;;;;;;-144.98;100.00;62585.19;4944390;29;20462;-71
2023/03/15 13:48:59;;;;;;;;;;;;;;;-144.98;100.00;62585.19;4956774;29;19925;-72
2023/03/15 13:52:22;;;;;;;;;;;;;;;-144.98;100.00;62585.19;4956439;29;20025;-73
2023/03/15 13:55:28;;;;;;;;;;;;;;;-144.98;100.00;62585.19;4954662;29;20290;-72
2023/03/15 13:58:32;;;;;;;;;;;;;;;-144.98;100.00;62585.19;4949751;29;20013;-71
2023/03/15 14:01:44;;;;;;;;;;;;;;;-144.98;100.00;62585.19;4953614;29;19925;-72
2023/03/15 14:04:51;;;;;;;;;;;;;;;-144.98;100.00;62585.19;4955810;29;19930;-74
2023/03/15 14:08:14;;;;;;;;;;;;;;;-144.98;100.00;62585.19;4956122;29;20417;-72
2023/03/15 14:11:29;;;;;;;;;;;;;;;-144.98;100.00;62585.19;4949299;29;19925;-72
2023/03/15 14:14:37;;;;;;;;;;;;;;;-144.98;100.00;62585.19;4955540;29;20381;-71
2023/03/15 14:17:51;;;;;;;;;;;;;;;-144.98;100.00;62585.19;4955418;29;20021;-71
2023/03/15 14:20:59;;;;;;;;;;;;;;;-144.98;100.00;62585.19;4955464;29;19926;-71
2023/03/15 14:24:05;;;;;;;;;;;;;;;-144.98;100.00;62585.19;4955263;28;20343;-71
2023/03/15 14:27:15;;;;;;;;;;;;;;;-144.98;100.00;62585.19;4952581;28;20020;-71
2023/03/15 14:30:23;;;;;;;;;;;;;;;-144.98;100.00;62585.19;4955611;29;19925;-72
2023/03/15 14:33:30;;;;;;;;;;;;;;;-144.98;100.00;62585.19;4943458;29;20009;-72
2023/03/15 14:36:40;;;;;;;;;;;;;;;-144.98;100.00;62585.19;4955169;29;19925;-71
2023/03/15 14:39:44;;;;;;;;;;;;;;;-144.98;100.00;62585.19;4955409;29;19925;-74
2023/03/15 14:42:48;;;;;;;;;;;;;;;-144.98;100.00;62585.19;4955467;29;20013;-73
2023/03/15 14:45:53;;;;;;;;;;;;;;;-144.98;100.00;62585.19;4955194;29;19996;-72
2023/03/15 14:49:04;;;;;;;;;;;;;;;-144.98;100.00;62585.19;4955326;29;20431;-76
2023/03/15 14:52:10;;;;;;;;;;;;;;;-144.98;100.00;62585.19;4954828;29;20025;-72
2023/03/15 14:55:22;;;;;;;;;;;;;;;-144.98;100.00;62585.19;4955029;29;19964;-74
2023/03/15 14:58:25;;;;;;;;;;;;;;;-144.98;100.00;62585.19;4949838;29;20012;-73
2023/03/15 15:01:29;;;;;;;;;;;;;;;-144.98;100.00;62585.19;4955184;29;19929;-74
2023/03/15 15:04:33;;;;;;;;;;;;;;;-144.98;100.00;62585.19;4954772;29;19989;-73
2023/03/15 15:07:40;;;;;;;;;;;;;;;-144.98;100.00;62585.19;4954807;29;20339;-73
2023/03/15 15:10:45;;;;;;;;;;;;;;;-144.98;100.00;62585.19;4952130;29;20357;-73
2023/03/15 15:13:48;;;;;;;;;;;;;;;-144.98;100.00;62585.19;4954937;29;19940;-73
2023/03/15 15:17:04;;;;;;;;;;;;;;;;;;;;;
2023/03/15 15:20:37;;;;;;;;;;;;;;;-144.98;100.00;62585.19;4954254;29;19995;-73
2023/03/15 15:23:41;;;;;;;;;;;;;;;-144.98;100.00;62585.19;4953982;28;20343;-73
2023/03/15 15:26:45;;;;;;;;;;;;;;;-144.98;100.00;62585.19;4954461;29;19930;-74
2023/03/15 15:29:51;;;;;;;;;;;;;;;-144.98;100.00;62585.19;4954348;29;20426;-75
2023/03/15 15:32:56;;;;;;;;;;;;;;;-144.98;100.00;62585.19;4954366;29;19926;-74
2023/03/15 15:35:59;;;;;;;;;;;;;;;-144.98;100.00;62585.19;4954530;29;19931;-75
2023/03/15 15:39:10;;;;;;;;;;;;;;;-144.98;100.00;62585.19;4955961;28;20291;-74
2023/03/15 15:42:14;;;;;;;;;;;;;;;-144.98;100.00;62585.19;4958408;29;19944;-74
2023/03/15 15:45:22;;;;;;;;;;;;;;;-144.98;100.00;62585.19;4958117;29;19924;-74
2023/03/15 15:48:25;;;;;;;;;;;;;;;-144.98;100.00;62585.19;4958368;29;19990;-74
2023/03/15 15:51:30;;;;;;;;;;;;;;;-144.98;100.00;62585.19;4958065;29;19930;-71
2023/03/15 15:54:35;;;;;;;;;;;;;;;-144.98;100.00;62585.19;4958238;29;19925;-77
2023/03/15 15:57:39;;;;;;;;;;;;;;;-144.98;100.00;62585.19;4945259;29;19989;-76
2023/03/15 16:00:43;;;;;;;;;;;;;;;-144.98;100.00;62585.19;4957078;29;19925;-72
2023/03/15 16:03:48;;;;;;;;;;;;;;;-144.98;100.00;62585.19;4957990;29;19930;-77
2023/03/15 16:06:53;;;;;;;;;;;;;;;-144.98;100.00;62585.19;4957802;29;19977;-77
2023/03/15 16:09:57;;;;;;;;;;;;;;;-144.98;100.00;62585.19;4958155;29;20298;-78